sensor_id;sensor_type;location;lat;lon;timestamp;P1;durP1;ratioP1;P2;durP2;ratioP2
17890;SDS011;9071;48.220;14.480;2023-09-12T00:02:30;24.65;;;19.35;;
17890;SDS011;9071;48.220;14.480;2023-09-12T00:07:32;22.90;;;18.90;;
17890;SDS011;9071;48.220;14.480;2023-09-12T00:12:34;24.58;;;19.85;;
17890;SDS011;9071;48.220;14.480;2023-09-12T00:17:37;24.05;;;19.42;;
17890;SDS011;9071;48.220;14.480;2023-09-12T00:22:39;25.80;;;20.35;;
17890;SDS011;9071;48.220;14.480;2023-09-12T00:27:41;24.77;;;20.55;;
17890;SDS011;9071;48.220;14.480;2023-09-12T00:32:45;21.40;;;18.50;;
17890;SDS011;9071;48.220;14.480;2023-09-12T00:37:47;29.20;;;20.60;;
17890;SDS011;9071;48.220;14.480;2023-09-12T00:42:49;24.27;;;21.23;;
17890;SDS011;9071;48.220;14.480;2023-09-12T00:47:53;28.60;;;21.25;;
17890;SDS011;9071;48.220;14.480;2023-09-12T00:52:55;26.02;;;21.00;;
17890;SDS011;9071;48.220;14.480;2023-09-12T00:57:57;25.48;;;20.70;;
17890;SDS011;9071;48.220;14.480;2023-09-12T01:03:01;26.52;;;20.25;;
17890;SDS011;9071;48.220;14.480;2023-09-12T01:08:05;30.30;;;22.17;;
17890;SDS011;9071;48.220;14.480;2023-09-12T01:13:07;26.95;;;21.58;;
17890;SDS011;9071;48.220;14.480;2023-09-12T01:18:10;31.17;;;24.23;;
17890;SDS011;9071;48.220;14.480;2023-09-12T01:23:21;29.60;;;21.50;;
17890;SDS011;9071;48.220;14.480;2023-09-12T01:28:37;26.52;;;20.30;;
17890;SDS011;9071;48.220;14.480;2023-09-12T01:33:42;24.30;;;19.92;;
17890;SDS011;9071;48.220;14.480;2023-09-12T01:38:45;26.52;;;20.92;;
17890;SDS011;9071;48.220;14.480;2023-09-12T01:43:48;26.67;;;21.83;;
17890;SDS011;9071;48.220;14.480;2023-09-12T01:48:52;28.67;;;21.73;;
17890;SDS011;9071;48.220;14.480;2023-09-12T01:53:56;26.92;;;22.48;;
17890;SDS011;9071;48.220;14.480;2023-09-12T01:59:01;30.30;;;23.63;;
17890;SDS011;9071;48.220;14.480;2023-09-12T02:04:04;33.08;;;25.52;;
17890;SDS011;9071;48.220;14.480;2023-09-12T02:09:08;29.20;;;23.58;;
17890;SDS011;9071;48.220;14.480;2023-09-12T02:14:12;30.02;;;22.75;;
17890;SDS011;9071;48.220;14.480;2023-09-12T02:19:14;30.30;;;24.10;;
17890;SDS011;9071;48.220;14.480;2023-09-12T02:24:16;28.02;;;21.88;;
17890;SDS011;9071;48.220;14.480;2023-09-12T02:29:22;30.45;;;23.63;;
17890;SDS011;9071;48.220;14.480;2023-09-12T02:34:24;33.75;;;25.02;;
17890;SDS011;9071;48.220;14.480;2023-09-12T02:39:26;33.22;;;24.85;;
17890;SDS011;9071;48.220;14.480;2023-09-12T02:44:30;27.63;;;22.67;;
17890;SDS011;9071;48.220;14.480;2023-09-12T02:49:32;29.08;;;23.63;;
17890;SDS011;9071;48.220;14.480;2023-09-12T02:54:34;30.77;;;24.10;;
17890;SDS011;9071;48.220;14.480;2023-09-12T02:59:38;34.05;;;23.52;;
17890;SDS011;9071;48.220;14.480;2023-09-12T03:04:40;28.08;;;23.02;;
17890;SDS011;9071;48.220;14.480;2023-09-12T03:09:42;29.30;;;22.73;;
17890;SDS011;9071;48.220;14.480;2023-09-12T03:14:45;30.40;;;23.45;;
17890;SDS011;9071;48.220;14.480;2023-09-12T03:19:47;31.75;;;22.27;;
17890;SDS011;9071;48.220;14.480;2023-09-12T03:24:49;30.83;;;22.65;;
17890;SDS011;9071;48.220;14.480;2023-09-12T03:29:53;25.80;;;21.17;;
17890;SDS011;9071;48.220;14.480;2023-09-12T03:34:55;25.42;;;21.25;;
17890;SDS011;9071;48.220;14.480;2023-09-12T03:39:57;25.77;;;20.80;;
17890;SDS011;9071;48.220;14.480;2023-09-12T03:45:00;23.92;;;19.80;;
17890;SDS011;9071;48.220;14.480;2023-09-12T03:50:03;22.93;;;18.87;;
17890;SDS011;9071;48.220;14.480;2023-09-12T03:55:06;28.00;;;22.33;;
17890;SDS011;9071;48.220;14.480;2023-09-12T04:00:11;35.50;;;24.83;;
17890;SDS011;9071;48.220;14.480;2023-09-12T04:05:14;29.07;;;23.63;;
17890;SDS011;9071;48.220;14.480;2023-09-12T04:10:17;32.53;;;24.10;;
17890;SDS011;9071;48.220;14.480;2023-09-12T04:15:20;29.05;;;22.10;;
17890;SDS011;9071;48.220;14.480;2023-09-12T04:20:22;29.90;;;22.58;;
17890;SDS011;9071;48.220;14.480;2023-09-12T04:25:25;30.38;;;20.70;;
17890;SDS011;9071;48.220;14.480;2023-09-12T04:30:28;33.92;;;22.55;;
17890;SDS011;9071;48.220;14.480;2023-09-12T04:35:32;37.20;;;25.13;;
17890;SDS011;9071;48.220;14.480;2023-09-12T04:40:34;33.35;;;23.75;;
17890;SDS011;9071;48.220;14.480;2023-09-12T04:45:38;28.00;;;21.40;;
17890;SDS011;9071;48.220;14.480;2023-09-12T04:50:40;27.73;;;22.17;;
17890;SDS011;9071;48.220;14.480;2023-09-12T04:55:42;30.95;;;23.50;;
17890;SDS011;9071;48.220;14.480;2023-09-12T05:00:46;35.93;;;24.80;;
17890;SDS011;9071;48.220;14.480;2023-09-12T05:05:48;31.10;;;21.70;;
17890;SDS011;9071;48.220;14.480;2023-09-12T05:10:51;27.23;;;21.20;;
17890;SDS011;9071;48.220;14.480;2023-09-12T05:15:54;26.75;;;20.90;;
17890;SDS011;9071;48.220;14.480;2023-09-12T05:20:57;32.83;;;24.08;;
17890;SDS011;9071;48.220;14.480;2023-09-12T05:25:59;32.45;;;25.60;;
17890;SDS011;9071;48.220;14.480;2023-09-12T05:31:02;29.63;;;23.65;;
17890;SDS011;9071;48.220;14.480;2023-09-12T05:36:04;25.27;;;21.75;;
17890;SDS011;9071;48.220;14.480;2023-09-12T05:41:07;28.45;;;18.95;;
17890;SDS011;9071;48.220;14.480;2023-09-12T05:46:10;22.38;;;15.60;;
17890;SDS011;9071;48.220;14.480;2023-09-12T05:51:12;22.92;;;14.73;;
17890;SDS011;9071;48.220;14.480;2023-09-12T05:56:14;17.02;;;12.95;;
17890;SDS011;9071;48.220;14.480;2023-09-12T06:01:18;17.15;;;12.43;;
17890;SDS011;9071;48.220;14.480;2023-09-12T06:06:20;19.27;;;11.02;;
17890;SDS011;9071;48.220;14.480;2023-09-12T06:11:22;15.73;;;11.15;;
17890;SDS011;9071;48.220;14.480;2023-09-12T06:16:27;15.48;;;11.30;;
17890;SDS011;9071;48.220;14.480;2023-09-12T06:21:29;17.17;;;10.93;;
17890;SDS011;9071;48.220;14.480;2023-09-12T06:26:31;19.67;;;12.05;;
17890;SDS011;9071;48.220;14.480;2023-09-12T06:31:36;16.38;;;11.55;;
17890;SDS011;9071;48.220;14.480;2023-09-12T06:36:38;16.60;;;11.52;;
17890;SDS011;9071;48.220;14.480;2023-09-12T06:41:41;19.00;;;12.52;;
17890;SDS011;9071;48.220;14.480;2023-09-12T06:46:45;17.98;;;12.48;;
17890;SDS011;9071;48.220;14.480;2023-09-12T06:51:47;20.65;;;13.15;;
17890;SDS011;9071;48.220;14.480;2023-09-12T06:56:49;21.85;;;14.38;;
17890;SDS011;9071;48.220;14.480;2023-09-12T07:01:52;27.70;;;14.68;;
17890;SDS011;9071;48.220;14.480;2023-09-12T07:06:54;21.90;;;13.85;;
17890;SDS011;9071;48.220;14.480;2023-09-12T07:11:57;20.60;;;13.43;;
17890;SDS011;9071;48.220;14.480;2023-09-12T07:17:00;21.33;;;17.00;;
17890;SDS011;9071;48.220;14.480;2023-09-12T07:22:03;22.75;;;14.45;;
17890;SDS011;9071;48.220;14.480;2023-09-12T07:27:05;22.80;;;14.13;;
17890;SDS011;9071;48.220;14.480;2023-09-12T07:32:08;19.45;;;13.90;;
17890;SDS011;9071;48.220;14.480;2023-09-12T07:37:10;20.05;;;15.15;;
17890;SDS011;9071;48.220;14.480;2023-09-12T07:42:13;19.02;;;13.75;;
17890;SDS011;9071;48.220;14.480;2023-09-12T07:47:16;16.60;;;12.85;;
17890;SDS011;9071;48.220;14.480;2023-09-12T07:52:19;21.48;;;13.45;;
17890;SDS011;9071;48.220;14.480;2023-09-12T07:57:21;16.38;;;14.35;;
17890;SDS011;9071;48.220;14.480;2023-09-12T08:02:24;18.77;;;14.30;;
17890;SDS011;9071;48.220;14.480;2023-09-12T08:07:26;17.73;;;14.15;;
17890;SDS011;9071;48.220;14.480;2023-09-12T08:12:28;19.10;;;14.90;;
17890;SDS011;9071;48.220;14.480;2023-09-12T08:17:32;19.15;;;14.50;;
17890;SDS011;9071;48.220;14.480;2023-09-12T08:22:34;22.75;;;15.63;;
17890;SDS011;9071;48.220;14.480;2023-09-12T08:27:36;17.80;;;15.32;;
17890;SDS011;9071;48.220;14.480;2023-09-12T08:32:40;17.50;;;15.60;;
17890;SDS011;9071;48.220;14.480;2023-09-12T08:37:44;18.60;;;14.77;;
17890;SDS011;9071;48.220;14.480;2023-09-12T08:42:46;20.30;;;16.30;;
17890;SDS011;9071;48.220;14.480;2023-09-12T08:47:53;20.95;;;16.50;;
17890;SDS011;9071;48.220;14.480;2023-09-12T08:52:56;17.17;;;14.43;;
17890;SDS011;9071;48.220;14.480;2023-09-12T08:57:58;24.23;;;17.42;;
17890;SDS011;9071;48.220;14.480;2023-09-12T09:03:02;31.25;;;17.98;;
17890;SDS011;9071;48.220;14.480;2023-09-12T09:08:05;20.35;;;15.73;;
17890;SDS011;9071;48.220;14.480;2023-09-12T09:13:08;20.27;;;15.13;;
17890;SDS011;9071;48.220;14.480;2023-09-12T09:18:13;22.67;;;14.75;;
17890;SDS011;9071;48.220;14.480;2023-09-12T09:23:15;23.65;;;16.77;;
17890;SDS011;9071;48.220;14.480;2023-09-12T09:28:17;21.52;;;16.13;;
17890;SDS011;9071;48.220;14.480;2023-09-12T09:33:21;16.80;;;14.82;;
17890;SDS011;9071;48.220;14.480;2023-09-12T09:38:24;20.80;;;14.13;;
17890;SDS011;9071;48.220;14.480;2023-09-12T09:43:26;19.48;;;14.48;;
17890;SDS011;9071;48.220;14.480;2023-09-12T09:48:33;16.48;;;13.70;;
17890;SDS011;9071;48.220;14.480;2023-09-12T09:53:36;16.77;;;13.10;;
17890;SDS011;9071;48.220;14.480;2023-09-12T09:58:45;16.65;;;13.02;;
17890;SDS011;9071;48.220;14.480;2023-09-12T10:03:50;21.40;;;12.38;;
17890;SDS011;9071;48.220;14.480;2023-09-12T10:08:52;19.85;;;12.82;;
17890;SDS011;9071;48.220;14.480;2023-09-12T10:13:56;16.77;;;12.45;;
17890;SDS011;9071;48.220;14.480;2023-09-12T10:19:04;19.52;;;12.63;;
17890;SDS011;9071;48.220;14.480;2023-09-12T10:24:12;17.85;;;12.80;;
17890;SDS011;9071;48.220;14.480;2023-09-12T10:29:16;16.30;;;12.85;;
17890;SDS011;9071;48.220;14.480;2023-09-12T10:34:19;17.92;;;13.05;;
17890;SDS011;9071;48.220;14.480;2023-09-12T10:39:23;15.10;;;12.70;;
17890;SDS011;9071;48.220;14.480;2023-09-12T10:44:26;18.80;;;13.23;;
17890;SDS011;9071;48.220;14.480;2023-09-12T10:49:31;16.50;;;12.25;;
17890;SDS011;9071;48.220;14.480;2023-09-12T10:54:36;14.32;;;12.38;;
17890;SDS011;9071;48.220;14.480;2023-09-12T11:16:21;14.50;;;10.75;;
17890;SDS011;9071;48.220;14.480;2023-09-12T11:21:32;12.30;;;10.77;;
17890;SDS011;9071;48.220;14.480;2023-09-12T11:26:34;15.63;;;11.40;;
17890;SDS011;9071;48.220;14.480;2023-09-12T11:31:54;12.43;;;11.18;;
17890;SDS011;9071;48.220;14.480;2023-09-12T11:37:00;15.65;;;11.82;;
17890;SDS011;9071;48.220;14.480;2023-09-12T11:42:03;17.23;;;11.85;;
17890;SDS011;9071;48.220;14.480;2023-09-12T11:47:09;18.65;;;11.68;;
17890;SDS011;9071;48.220;14.480;2023-09-12T11:52:14;12.50;;;11.05;;
17890;SDS011;9071;48.220;14.480;2023-09-12T11:57:17;14.35;;;11.13;;
17890;SDS011;9071;48.220;14.480;2023-09-12T12:02:20;15.23;;;10.88;;
17890;SDS011;9071;48.220;14.480;2023-09-12T12:07:23;14.45;;;10.52;;
17890;SDS011;9071;48.220;14.480;2023-09-12T12:12:26;13.43;;;10.00;;
17890;SDS011;9071;48.220;14.480;2023-09-12T12:17:28;12.00;;;10.38;;
17890;SDS011;9071;48.220;14.480;2023-09-12T12:22:31;14.52;;;10.30;;
17890;SDS011;9071;48.220;14.480;2023-09-12T12:27:34;13.25;;;10.57;;
17890;SDS011;9071;48.220;14.480;2023-09-12T12:32:39;13.73;;;10.35;;
17890;SDS011;9071;48.220;14.480;2023-09-12T12:37:43;13.75;;;10.45;;
17890;SDS011;9071;48.220;14.480;2023-09-12T12:42:45;11.48;;;10.10;;
17890;SDS011;9071;48.220;14.480;2023-09-12T12:47:50;13.18;;;9.43;;
17890;SDS011;9071;48.220;14.480;2023-09-12T12:52:54;11.00;;;9.90;;
17890;SDS011;9071;48.220;14.480;2023-09-12T12:57:57;13.93;;;9.68;;
17890;SDS011;9071;48.220;14.480;2023-09-12T13:02:59;10.35;;;8.80;;
17890;SDS011;9071;48.220;14.480;2023-09-12T13:08:02;10.82;;;9.73;;
17890;SDS011;9071;48.220;14.480;2023-09-12T13:13:05;10.55;;;8.25;;
17890;SDS011;9071;48.220;14.480;2023-09-12T13:18:07;10.43;;;8.77;;
17890;SDS011;9071;48.220;14.480;2023-09-12T13:23:10;13.48;;;7.53;;
17890;SDS011;9071;48.220;14.480;2023-09-12T13:28:12;10.95;;;8.23;;
17890;SDS011;9071;48.220;14.480;2023-09-12T13:33:14;9.45;;;7.65;;
17890;SDS011;9071;48.220;14.480;2023-09-12T13:38:18;9.48;;;8.32;;
17890;SDS011;9071;48.220;14.480;2023-09-12T13:43:20;10.65;;;8.55;;
17890;SDS011;9071;48.220;14.480;2023-09-12T13:48:23;9.50;;;8.57;;
17890;SDS011;9071;48.220;14.480;2023-09-12T13:53:27;12.20;;;8.80;;
17890;SDS011;9071;48.220;14.480;2023-09-12T13:58:29;8.13;;;7.32;;
17890;SDS011;9071;48.220;14.480;2023-09-12T14:03:31;9.43;;;7.13;;
17890;SDS011;9071;48.220;14.480;2023-09-12T14:08:35;9.57;;;7.22;;
17890;SDS011;9071;48.220;14.480;2023-09-12T14:13:37;9.82;;;6.88;;
17890;SDS011;9071;48.220;14.480;2023-09-12T14:18:39;9.85;;;7.35;;
17890;SDS011;9071;48.220;14.480;2023-09-12T14:23:42;8.52;;;7.30;;
17890;SDS011;9071;48.220;14.480;2023-09-12T14:28:44;9.00;;;7.22;;
17890;SDS011;9071;48.220;14.480;2023-09-12T14:33:46;8.02;;;7.13;;
17890;SDS011;9071;48.220;14.480;2023-09-12T14:38:50;10.75;;;7.13;;
17890;SDS011;9071;48.220;14.480;2023-09-12T14:43:52;11.60;;;6.65;;
17890;SDS011;9071;48.220;14.480;2023-09-12T14:48:54;10.63;;;6.90;;
17890;SDS011;9071;48.220;14.480;2023-09-12T14:53:57;7.50;;;6.75;;
17890;SDS011;9071;48.220;14.480;2023-09-12T14:58:59;10.05;;;6.88;;
17890;SDS011;9071;48.220;14.480;2023-09-12T15:04:01;12.45;;;6.88;;
17890;SDS011;9071;48.220;14.480;2023-09-12T15:09:05;8.15;;;6.07;;
17890;SDS011;9071;48.220;14.480;2023-09-12T15:14:07;7.20;;;6.00;;
17890;SDS011;9071;48.220;14.480;2023-09-12T15:19:09;6.90;;;6.10;;
17890;SDS011;9071;48.220;14.480;2023-09-12T15:24:13;6.90;;;5.55;;
17890;SDS011;9071;48.220;14.480;2023-09-12T15:29:15;6.97;;;5.70;;
17890;SDS011;9071;48.220;14.480;2023-09-12T15:34:17;9.73;;;5.75;;
17890;SDS011;9071;48.220;14.480;2023-09-12T15:39:20;6.72;;;5.90;;
17890;SDS011;9071;48.220;14.480;2023-09-12T15:44:22;6.05;;;5.45;;
17890;SDS011;9071;48.220;14.480;2023-09-12T15:49:26;7.93;;;6.05;;
17890;SDS011;9071;48.220;14.480;2023-09-12T15:54:30;6.43;;;5.80;;
17890;SDS011;9071;48.220;14.480;2023-09-12T15:59:32;9.70;;;6.53;;
17890;SDS011;9071;48.220;14.480;2023-09-12T16:04:34;6.50;;;5.90;;
17890;SDS011;9071;48.220;14.480;2023-09-12T16:09:37;7.05;;;6.18;;
17890;SDS011;9071;48.220;14.480;2023-09-12T16:14:39;7.57;;;6.15;;
17890;SDS011;9071;48.220;14.480;2023-09-12T16:19:41;8.63;;;6.55;;
17890;SDS011;9071;48.220;14.480;2023-09-12T16:24:45;7.97;;;7.18;;
17890;SDS011;9071;48.220;14.480;2023-09-12T16:29:47;7.82;;;6.97;;
17890;SDS011;9071;48.220;14.480;2023-09-12T16:34:49;10.57;;;6.82;;
17890;SDS011;9071;48.220;14.480;2023-09-12T16:39:53;9.07;;;6.03;;
17890;SDS011;9071;48.220;14.480;2023-09-12T16:44:57;8.85;;;7.00;;
17890;SDS011;9071;48.220;14.480;2023-09-12T16:50:00;8.40;;;6.85;;
17890;SDS011;9071;48.220;14.480;2023-09-12T16:55:04;7.70;;;6.47;;
17890;SDS011;9071;48.220;14.480;2023-09-12T17:00:07;12.63;;;7.38;;
17890;SDS011;9071;48.220;14.480;2023-09-12T17:05:10;9.82;;;7.25;;
17890;SDS011;9071;48.220;14.480;2023-09-12T17:10:14;9.93;;;8.18;;
17890;SDS011;9071;48.220;14.480;2023-09-12T17:15:16;13.13;;;8.48;;
17890;SDS011;9071;48.220;14.480;2023-09-12T17:20:18;10.57;;;7.45;;
17890;SDS011;9071;48.220;14.480;2023-09-12T17:25:22;10.25;;;8.00;;
17890;SDS011;9071;48.220;14.480;2023-09-12T17:30:24;10.70;;;8.73;;
17890;SDS011;9071;48.220;14.480;2023-09-12T17:35:26;11.48;;;9.18;;
17890;SDS011;9071;48.220;14.480;2023-09-12T17:40:29;13.43;;;11.02;;
17890;SDS011;9071;48.220;14.480;2023-09-12T17:45:32;14.98;;;12.07;;
17890;SDS011;9071;48.220;14.480;2023-09-12T17:50:34;13.13;;;9.98;;
17890;SDS011;9071;48.220;14.480;2023-09-12T17:55:38;13.65;;;10.90;;
17890;SDS011;9071;48.220;14.480;2023-09-12T18:00:40;15.10;;;11.57;;
17890;SDS011;9071;48.220;14.480;2023-09-12T18:05:45;12.05;;;10.20;;
17890;SDS011;9071;48.220;14.480;2023-09-12T18:10:48;13.05;;;10.35;;
17890;SDS011;9071;48.220;14.480;2023-09-12T18:15:51;13.90;;;9.70;;
17890;SDS011;9071;48.220;14.480;2023-09-12T18:20:53;12.82;;;9.85;;
17890;SDS011;9071;48.220;14.480;2023-09-12T18:25:59;14.40;;;11.82;;
17890;SDS011;9071;48.220;14.480;2023-09-12T18:31:03;20.40;;;14.95;;
17890;SDS011;9071;48.220;14.480;2023-09-12T18:36:07;22.17;;;13.27;;
17890;SDS011;9071;48.220;14.480;2023-09-12T18:41:13;15.38;;;13.18;;
17890;SDS011;9071;48.220;14.480;2023-09-12T18:46:16;18.35;;;15.00;;
17890;SDS011;9071;48.220;14.480;2023-09-12T18:51:19;18.40;;;13.93;;
17890;SDS011;9071;48.220;14.480;2023-09-12T18:56:22;17.30;;;13.23;;
17890;SDS011;9071;48.220;14.480;2023-09-12T19:01:24;23.85;;;14.88;;
17890;SDS011;9071;48.220;14.480;2023-09-12T19:06:27;19.08;;;13.27;;
17890;SDS011;9071;48.220;14.480;2023-09-12T19:11:31;21.75;;;14.55;;
17890;SDS011;9071;48.220;14.480;2023-09-12T19:16:33;17.92;;;14.52;;
17890;SDS011;9071;48.220;14.480;2023-09-12T19:21:35;17.15;;;13.63;;
17890;SDS011;9071;48.220;14.480;2023-09-12T19:26:38;19.60;;;15.20;;
17890;SDS011;9071;48.220;14.480;2023-09-12T19:31:41;18.95;;;15.45;;
17890;SDS011;9071;48.220;14.480;2023-09-12T19:36:43;17.60;;;15.20;;
17890;SDS011;9071;48.220;14.480;2023-09-12T19:41:47;19.20;;;15.15;;
17890;SDS011;9071;48.220;14.480;2023-09-12T19:46:49;18.90;;;16.60;;
17890;SDS011;9071;48.220;14.480;2023-09-12T19:51:51;20.45;;;16.33;;
17890;SDS011;9071;48.220;14.480;2023-09-12T19:56:55;21.75;;;15.73;;
17890;SDS011;9071;48.220;14.480;2023-09-12T20:01:57;20.65;;;15.15;;
17890;SDS011;9071;48.220;14.480;2023-09-12T20:06:59;24.90;;;15.82;;
17890;SDS011;9071;48.220;14.480;2023-09-12T20:12:03;22.25;;;16.20;;
17890;SDS011;9071;48.220;14.480;2023-09-12T20:17:05;19.77;;;16.15;;
17890;SDS011;9071;48.220;14.480;2023-09-12T20:22:07;21.48;;;15.75;;
17890;SDS011;9071;48.220;14.480;2023-09-12T20:27:10;21.60;;;15.93;;
17890;SDS011;9071;48.220;14.480;2023-09-12T20:32:12;21.33;;;15.48;;
17890;SDS011;9071;48.220;14.480;2023-09-12T20:37:14;23.80;;;15.98;;
17890;SDS011;9071;48.220;14.480;2023-09-12T20:42:18;20.33;;;15.38;;
17890;SDS011;9071;48.220;14.480;2023-09-12T20:47:20;20.67;;;14.82;;
17890;SDS011;9071;48.220;14.480;2023-09-12T20:52:23;19.85;;;15.43;;
17890;SDS011;9071;48.220;14.480;2023-09-12T20:57:26;23.70;;;16.90;;
17890;SDS011;9071;48.220;14.480;2023-09-12T21:02:28;20.60;;;15.77;;
17890;SDS011;9071;48.220;14.480;2023-09-12T21:07:30;21.55;;;16.08;;
17890;SDS011;9071;48.220;14.480;2023-09-12T21:12:34;19.20;;;15.43;;
17890;SDS011;9071;48.220;14.480;2023-09-12T21:17:36;22.10;;;16.05;;
17890;SDS011;9071;48.220;14.480;2023-09-12T21:22:38;22.35;;;16.80;;
17890;SDS011;9071;48.220;14.480;2023-09-12T21:27:42;20.25;;;16.00;;
17890;SDS011;9071;48.220;14.480;2023-09-12T21:32:44;18.73;;;16.48;;
17890;SDS011;9071;48.220;14.480;2023-09-12T21:37:46;21.90;;;16.92;;
17890;SDS011;9071;48.220;14.480;2023-09-12T21:42:50;23.13;;;18.48;;
17890;SDS011;9071;48.220;14.480;2023-09-12T21:47:52;25.17;;;18.63;;
17890;SDS011;9071;48.220;14.480;2023-09-12T21:52:54;21.60;;;17.77;;
17890;SDS011;9071;48.220;14.480;2023-09-12T21:57:57;21.65;;;18.23;;
17890;SDS011;9071;48.220;14.480;2023-09-12T22:03:00;23.27;;;18.02;;
17890;SDS011;9071;48.220;14.480;2023-09-12T22:08:03;21.27;;;17.52;;
17890;SDS011;9071;48.220;14.480;2023-09-12T22:13:08;20.77;;;16.70;;
17890;SDS011;9071;48.220;14.480;2023-09-12T22:18:10;21.08;;;16.90;;
17890;SDS011;9071;48.220;14.480;2023-09-12T22:23:12;23.92;;;17.42;;
17890;SDS011;9071;48.220;14.480;2023-09-12T22:28:15;24.08;;;18.02;;
17890;SDS011;9071;48.220;14.480;2023-09-12T22:33:17;21.27;;;18.30;;
17890;SDS011;9071;48.220;14.480;2023-09-12T22:38:19;21.92;;;17.70;;
17890;SDS011;9071;48.220;14.480;2023-09-12T22:43:23;24.17;;;19.02;;
17890;SDS011;9071;48.220;14.480;2023-09-12T22:48:25;22.45;;;18.48;;
17890;SDS011;9071;48.220;14.480;2023-09-12T22:53:27;26.10;;;18.95;;
17890;SDS011;9071;48.220;14.480;2023-09-12T22:58:31;25.02;;;20.30;;
17890;SDS011;9071;48.220;14.480;2023-09-12T23:03:33;21.42;;;18.23;;
17890;SDS011;9071;48.220;14.480;2023-09-12T23:08:35;20.65;;;17.02;;
17890;SDS011;9071;48.220;14.480;2023-09-12T23:13:38;21.67;;;18.15;;
17890;SDS011;9071;48.220;14.480;2023-09-12T23:18:40;21.65;;;18.52;;
17890;SDS011;9071;48.220;14.480;2023-09-12T23:23:42;26.45;;;20.60;;
17890;SDS011;9071;48.220;14.480;2023-09-12T23:28:46;22.55;;;16.90;;
17890;SDS011;9071;48.220;14.480;2023-09-12T23:33:48;25.75;;;19.38;;
17890;SDS011;9071;48.220;14.480;2023-09-12T23:38:50;24.73;;;19.38;;
17890;SDS011;9071;48.220;14.480;2023-09-12T23:43:53;24.27;;;18.00;;
17890;SDS011;9071;48.220;14.480;2023-09-12T23:48:55;26.17;;;19.60;;
17890;SDS011;9071;48.220;14.480;2023-09-12T23:53:59;21.88;;;18.65;;
17890;SDS011;9071;48.220;14.480;2023-09-12T23:59:03;26.73;;;20.27;;
